sensor_id;sensor_type;location;lat;lon;timestamp;temperature;humidity
17200;DHT22;8716;52.268;20.968;2024-02-15T00:02:17;7.30;99.90
17200;DHT22;8716;52.268;20.968;2024-02-15T00:04:45;7.30;99.90
17200;DHT22;8716;52.268;20.968;2024-02-15T00:07:16;7.30;99.90
17200;DHT22;8716;52.268;20.968;2024-02-15T00:09:47;7.30;99.90
17200;DHT22;8716;52.268;20.968;2024-02-15T00:12:18;7.30;99.90
17200;DHT22;8716;52.268;20.968;2024-02-15T00:14:46;7.30;99.90
17200;DHT22;8716;52.268;20.968;2024-02-15T00:17:15;7.30;99.90
17200;DHT22;8716;52.268;20.968;2024-02-15T00:19:43;7.30;99.90
17200;DHT22;8716;52.268;20.968;2024-02-15T00:22:12;7.30;99.90
17200;DHT22;8716;52.268;20.968;2024-02-15T00:24:40;7.30;99.90
17200;DHT22;8716;52.268;20.968;2024-02-15T00:27:11;7.30;99.90
17200;DHT22;8716;52.268;20.968;2024-02-15T00:29:39;7.30;99.90
17200;DHT22;8716;52.268;20.968;2024-02-15T00:32:08;7.30;99.90
17200;DHT22;8716;52.268;20.968;2024-02-15T00:34:38;7.30;99.90
17200;DHT22;8716;52.268;20.968;2024-02-15T00:37:06;7.30;99.90
17200;DHT22;8716;52.268;20.968;2024-02-15T00:39:35;7.30;99.90
17200;DHT22;8716;52.268;20.968;2024-02-15T00:42:03;7.30;99.90
17200;DHT22;8716;52.268;20.968;2024-02-15T00:44:34;7.30;99.90
17200;DHT22;8716;52.268;20.968;2024-02-15T00:47:02;7.30;99.90
17200;DHT22;8716;52.268;20.968;2024-02-15T00:49:31;7.20;99.90
17200;DHT22;8716;52.268;20.968;2024-02-15T00:52:01;7.20;99.90
17200;DHT22;8716;52.268;20.968;2024-02-15T00:54:29;7.20;99.90
17200;DHT22;8716;52.268;20.968;2024-02-15T00:56:57;7.20;99.90
17200;DHT22;8716;52.268;20.968;2024-02-15T00:59:26;7.20;99.90
17200;DHT22;8716;52.268;20.968;2024-02-15T01:01:55;7.20;99.90
17200;DHT22;8716;52.268;20.968;2024-02-15T01:04:23;7.10;99.90
17200;DHT22;8716;52.268;20.968;2024-02-15T01:06:52;7.10;99.90
17200;DHT22;8716;52.268;20.968;2024-02-15T01:09:21;7.10;99.90
17200;DHT22;8716;52.268;20.968;2024-02-15T01:11:49;7.10;99.90
17200;DHT22;8716;52.268;20.968;2024-02-15T01:14:18;7.10;99.90
17200;DHT22;8716;52.268;20.968;2024-02-15T01:16:46;7.10;99.90
17200;DHT22;8716;52.268;20.968;2024-02-15T01:19:16;7.10;99.90
17200;DHT22;8716;52.268;20.968;2024-02-15T01:21:45;7.10;99.90
17200;DHT22;8716;52.268;20.968;2024-02-15T01:24:13;7.10;99.90
17200;DHT22;8716;52.268;20.968;2024-02-15T01:26:41;7.00;99.90
17200;DHT22;8716;52.268;20.968;2024-02-15T01:29:10;7.00;99.90
17200;DHT22;8716;52.268;20.968;2024-02-15T01:31:39;7.00;99.90
17200;DHT22;8716;52.268;20.968;2024-02-15T01:34:09;7.00;99.90
17200;DHT22;8716;52.268;20.968;2024-02-15T01:36:39;7.00;99.90
17200;DHT22;8716;52.268;20.968;2024-02-15T01:39:08;7.00;99.90
17200;DHT22;8716;52.268;20.968;2024-02-15T01:41:36;7.00;99.90
17200;DHT22;8716;52.268;20.968;2024-02-15T01:44:05;7.00;99.90
17200;DHT22;8716;52.268;20.968;2024-02-15T01:46:33;7.00;99.90
17200;DHT22;8716;52.268;20.968;2024-02-15T01:49:02;7.00;99.90
17200;DHT22;8716;52.268;20.968;2024-02-15T01:51:32;7.00;99.90
17200;DHT22;8716;52.268;20.968;2024-02-15T01:54:04;7.10;99.90
17200;DHT22;8716;52.268;20.968;2024-02-15T01:56:32;7.10;99.90
17200;DHT22;8716;52.268;20.968;2024-02-15T01:59:01;7.10;99.90
17200;DHT22;8716;52.268;20.968;2024-02-15T02:01:30;7.10;99.90
17200;DHT22;8716;52.268;20.968;2024-02-15T02:04:00;7.10;99.90
17200;DHT22;8716;52.268;20.968;2024-02-15T02:06:29;7.10;99.90
17200;DHT22;8716;52.268;20.968;2024-02-15T02:08:58;7.00;99.90
17200;DHT22;8716;52.268;20.968;2024-02-15T02:11:28;7.10;99.90
17200;DHT22;8716;52.268;20.968;2024-02-15T02:13:56;7.10;99.90
17200;DHT22;8716;52.268;20.968;2024-02-15T02:16:26;7.10;99.90
17200;DHT22;8716;52.268;20.968;2024-02-15T02:18:57;7.10;99.90
17200;DHT22;8716;52.268;20.968;2024-02-15T02:21:27;7.00;99.90
17200;DHT22;8716;52.268;20.968;2024-02-15T02:23:57;7.00;99.90
17200;DHT22;8716;52.268;20.968;2024-02-15T02:26:27;7.00;99.90
17200;DHT22;8716;52.268;20.968;2024-02-15T02:28:56;7.10;99.90
17200;DHT22;8716;52.268;20.968;2024-02-15T02:31:26;7.10;99.90
17200;DHT22;8716;52.268;20.968;2024-02-15T02:33:54;7.10;99.90
17200;DHT22;8716;52.268;20.968;2024-02-15T02:36:25;7.10;99.90
17200;DHT22;8716;52.268;20.968;2024-02-15T02:38:56;7.00;99.90
17200;DHT22;8716;52.268;20.968;2024-02-15T02:41:29;7.10;99.90
17200;DHT22;8716;52.268;20.968;2024-02-15T02:43:58;7.10;99.90
17200;DHT22;8716;52.268;20.968;2024-02-15T02:46:26;7.10;99.90
17200;DHT22;8716;52.268;20.968;2024-02-15T02:48:54;7.10;99.90
17200;DHT22;8716;52.268;20.968;2024-02-15T02:51:23;7.10;99.90
17200;DHT22;8716;52.268;20.968;2024-02-15T02:53:51;7.10;99.90
17200;DHT22;8716;52.268;20.968;2024-02-15T02:56:21;7.10;99.90
17200;DHT22;8716;52.268;20.968;2024-02-15T02:58:51;7.10;99.90
17200;DHT22;8716;52.268;20.968;2024-02-15T03:01:22;7.10;99.90
17200;DHT22;8716;52.268;20.968;2024-02-15T03:03:52;7.10;99.90
17200;DHT22;8716;52.268;20.968;2024-02-15T03:06:22;7.10;99.90
17200;DHT22;8716;52.268;20.968;2024-02-15T03:08:52;7.10;99.90
17200;DHT22;8716;52.268;20.968;2024-02-15T03:11:21;7.10;99.90
17200;DHT22;8716;52.268;20.968;2024-02-15T03:13:51;7.10;99.90
17200;DHT22;8716;52.268;20.968;2024-02-15T03:16:22;7.10;99.90
17200;DHT22;8716;52.268;20.968;2024-02-15T03:18:52;7.10;99.90
17200;DHT22;8716;52.268;20.968;2024-02-15T03:21:20;7.10;99.90
17200;DHT22;8716;52.268;20.968;2024-02-15T03:23:49;7.10;99.90
17200;DHT22;8716;52.268;20.968;2024-02-15T03:26:26;7.10;99.90
17200;DHT22;8716;52.268;20.968;2024-02-15T03:28:58;7.10;99.90
17200;DHT22;8716;52.268;20.968;2024-02-15T03:31:26;7.10;99.90
17200;DHT22;8716;52.268;20.968;2024-02-15T03:33:54;7.10;99.90
17200;DHT22;8716;52.268;20.968;2024-02-15T03:36:23;7.10;99.90
17200;DHT22;8716;52.268;20.968;2024-02-15T03:38:51;7.10;99.90
17200;DHT22;8716;52.268;20.968;2024-02-15T03:41:21;7.10;99.90
17200;DHT22;8716;52.268;20.968;2024-02-15T03:43:50;7.10;99.90
17200;DHT22;8716;52.268;20.968;2024-02-15T03:46:19;7.10;99.90
17200;DHT22;8716;52.268;20.968;2024-02-15T03:48:48;7.10;99.90
17200;DHT22;8716;52.268;20.968;2024-02-15T03:51:16;7.10;99.90
17200;DHT22;8716;52.268;20.968;2024-02-15T03:53:45;7.10;99.90
17200;DHT22;8716;52.268;20.968;2024-02-15T03:56:16;7.10;99.90
17200;DHT22;8716;52.268;20.968;2024-02-15T03:58:44;7.10;99.90
17200;DHT22;8716;52.268;20.968;2024-02-15T04:01:12;7.10;99.90
17200;DHT22;8716;52.268;20.968;2024-02-15T04:03:44;7.10;99.90
17200;DHT22;8716;52.268;20.968;2024-02-15T04:06:14;7.10;99.90
17200;DHT22;8716;52.268;20.968;2024-02-15T04:08:43;7.10;99.90
17200;DHT22;8716;52.268;20.968;2024-02-15T04:11:11;7.10;99.90
17200;DHT22;8716;52.268;20.968;2024-02-15T04:13:41;7.10;99.90
17200;DHT22;8716;52.268;20.968;2024-02-15T04:16:09;7.00;99.90
17200;DHT22;8716;52.268;20.968;2024-02-15T04:18:37;7.10;99.90
17200;DHT22;8716;52.268;20.968;2024-02-15T04:21:07;7.10;99.90
17200;DHT22;8716;52.268;20.968;2024-02-15T04:23:35;7.00;99.90
17200;DHT22;8716;52.268;20.968;2024-02-15T04:26:04;7.10;99.90
17200;DHT22;8716;52.268;20.968;2024-02-15T04:28:32;7.10;99.90
17200;DHT22;8716;52.268;20.968;2024-02-15T04:31:00;7.10;99.90
17200;DHT22;8716;52.268;20.968;2024-02-15T04:33:29;7.10;99.90
17200;DHT22;8716;52.268;20.968;2024-02-15T04:35:57;7.10;99.90
17200;DHT22;8716;52.268;20.968;2024-02-15T04:38:27;7.00;99.90
17200;DHT22;8716;52.268;20.968;2024-02-15T04:40:55;7.00;99.90
17200;DHT22;8716;52.268;20.968;2024-02-15T04:43:24;7.00;99.90
17200;DHT22;8716;52.268;20.968;2024-02-15T04:45:52;7.00;99.90
17200;DHT22;8716;52.268;20.968;2024-02-15T04:48:21;7.00;99.90
17200;DHT22;8716;52.268;20.968;2024-02-15T04:50:52;7.00;99.90
17200;DHT22;8716;52.268;20.968;2024-02-15T04:53:21;7.00;99.90
17200;DHT22;8716;52.268;20.968;2024-02-15T04:55:51;7.00;99.90
17200;DHT22;8716;52.268;20.968;2024-02-15T04:58:22;7.00;99.90
17200;DHT22;8716;52.268;20.968;2024-02-15T05:00:50;7.00;99.90
17200;DHT22;8716;52.268;20.968;2024-02-15T05:03:21;7.00;99.90
17200;DHT22;8716;52.268;20.968;2024-02-15T05:05:50;7.00;99.90
17200;DHT22;8716;52.268;20.968;2024-02-15T05:08:18;7.00;99.90
17200;DHT22;8716;52.268;20.968;2024-02-15T05:10:47;7.00;99.90
17200;DHT22;8716;52.268;20.968;2024-02-15T05:13:17;7.00;99.90
17200;DHT22;8716;52.268;20.968;2024-02-15T05:15:45;7.00;99.90
17200;DHT22;8716;52.268;20.968;2024-02-15T05:18:13;7.00;99.90
17200;DHT22;8716;52.268;20.968;2024-02-15T05:20:42;7.00;99.90
17200;DHT22;8716;52.268;20.968;2024-02-15T05:23:10;7.00;99.90
17200;DHT22;8716;52.268;20.968;2024-02-15T05:25:39;7.00;99.90
17200;DHT22;8716;52.268;20.968;2024-02-15T05:28:08;7.00;99.90
17200;DHT22;8716;52.268;20.968;2024-02-15T05:30:38;6.90;99.90
17200;DHT22;8716;52.268;20.968;2024-02-15T05:33:06;7.00;99.90
17200;DHT22;8716;52.268;20.968;2024-02-15T05:35:37;7.00;99.90
17200;DHT22;8716;52.268;20.968;2024-02-15T05:38:09;7.00;99.90
17200;DHT22;8716;52.268;20.968;2024-02-15T05:40:38;7.00;99.90
17200;DHT22;8716;52.268;20.968;2024-02-15T05:43:06;7.00;99.90
17200;DHT22;8716;52.268;20.968;2024-02-15T05:45:35;7.00;99.90
17200;DHT22;8716;52.268;20.968;2024-02-15T05:48:08;7.00;99.90
17200;DHT22;8716;52.268;20.968;2024-02-15T05:50:40;7.00;99.90
17200;DHT22;8716;52.268;20.968;2024-02-15T05:53:08;7.00;99.90
17200;DHT22;8716;52.268;20.968;2024-02-15T05:55:36;7.00;99.90
17200;DHT22;8716;52.268;20.968;2024-02-15T05:58:07;7.00;99.90
17200;DHT22;8716;52.268;20.968;2024-02-15T06:00:37;7.00;99.90
17200;DHT22;8716;52.268;20.968;2024-02-15T06:03:09;7.00;99.90
17200;DHT22;8716;52.268;20.968;2024-02-15T06:05:39;7.00;99.90
17200;DHT22;8716;52.268;20.968;2024-02-15T06:08:09;7.00;99.90
17200;DHT22;8716;52.268;20.968;2024-02-15T06:10:39;7.00;99.90
17200;DHT22;8716;52.268;20.968;2024-02-15T06:13:08;7.00;99.90
17200;DHT22;8716;52.268;20.968;2024-02-15T06:15:36;7.00;99.90
17200;DHT22;8716;52.268;20.968;2024-02-15T06:18:05;7.00;99.90
17200;DHT22;8716;52.268;20.968;2024-02-15T06:20:38;6.90;99.90
17200;DHT22;8716;52.268;20.968;2024-02-15T06:23:07;6.90;99.90
17200;DHT22;8716;52.268;20.968;2024-02-15T06:25:35;6.90;99.90
17200;DHT22;8716;52.268;20.968;2024-02-15T06:28:04;6.90;99.90
17200;DHT22;8716;52.268;20.968;2024-02-15T06:30:40;6.90;99.90
17200;DHT22;8716;52.268;20.968;2024-02-15T06:33:31;6.90;99.90
17200;DHT22;8716;52.268;20.968;2024-02-15T06:36:33;6.80;99.90
17200;DHT22;8716;52.268;20.968;2024-02-15T06:39:19;6.90;99.90
17200;DHT22;8716;52.268;20.968;2024-02-15T06:42:06;6.90;99.90
17200;DHT22;8716;52.268;20.968;2024-02-15T06:44:35;6.80;99.90
17200;DHT22;8716;52.268;20.968;2024-02-15T06:47:03;6.80;99.90
17200;DHT22;8716;52.268;20.968;2024-02-15T06:49:32;6.80;99.90
17200;DHT22;8716;52.268;20.968;2024-02-15T06:52:03;6.80;99.90
17200;DHT22;8716;52.268;20.968;2024-02-15T06:54:31;6.70;99.90
17200;DHT22;8716;52.268;20.968;2024-02-15T06:57:00;6.70;99.90
17200;DHT22;8716;52.268;20.968;2024-02-15T06:59:29;6.70;99.90
17200;DHT22;8716;52.268;20.968;2024-02-15T07:01:58;6.70;99.90
17200;DHT22;8716;52.268;20.968;2024-02-15T07:04:27;6.70;99.90
17200;DHT22;8716;52.268;20.968;2024-02-15T07:06:56;6.70;99.90
17200;DHT22;8716;52.268;20.968;2024-02-15T07:09:27;6.60;99.90
17200;DHT22;8716;52.268;20.968;2024-02-15T07:11:57;6.70;99.90
17200;DHT22;8716;52.268;20.968;2024-02-15T07:14:26;6.70;99.90
17200;DHT22;8716;52.268;20.968;2024-02-15T07:16:55;6.70;99.90
17200;DHT22;8716;52.268;20.968;2024-02-15T07:19:26;6.70;99.90
17200;DHT22;8716;52.268;20.968;2024-02-15T07:21:55;6.70;99.90
17200;DHT22;8716;52.268;20.968;2024-02-15T07:24:25;6.70;99.90
17200;DHT22;8716;52.268;20.968;2024-02-15T07:26:55;6.70;99.90
17200;DHT22;8716;52.268;20.968;2024-02-15T07:29:23;6.70;99.90
17200;DHT22;8716;52.268;20.968;2024-02-15T07:31:52;6.70;99.90
17200;DHT22;8716;52.268;20.968;2024-02-15T07:34:21;6.70;99.90
17200;DHT22;8716;52.268;20.968;2024-02-15T07:36:50;6.70;99.90
17200;DHT22;8716;52.268;20.968;2024-02-15T07:39:18;6.80;99.90
17200;DHT22;8716;52.268;20.968;2024-02-15T07:41:52;6.80;99.90
17200;DHT22;8716;52.268;20.968;2024-02-15T07:44:21;6.80;99.90
17200;DHT22;8716;52.268;20.968;2024-02-15T07:46:52;6.80;99.90
17200;DHT22;8716;52.268;20.968;2024-02-15T07:49:21;6.80;99.90
17200;DHT22;8716;52.268;20.968;2024-02-15T07:51:49;6.80;99.90
17200;DHT22;8716;52.268;20.968;2024-02-15T07:54:20;6.80;99.90
17200;DHT22;8716;52.268;20.968;2024-02-15T07:56:49;6.80;99.90
17200;DHT22;8716;52.268;20.968;2024-02-15T07:59:20;6.80;99.90
17200;DHT22;8716;52.268;20.968;2024-02-15T08:01:48;6.80;99.90
17200;DHT22;8716;52.268;20.968;2024-02-15T08:04:18;6.80;99.90
17200;DHT22;8716;52.268;20.968;2024-02-15T08:06:47;6.80;99.90
17200;DHT22;8716;52.268;20.968;2024-02-15T08:09:16;7.00;99.90
17200;DHT22;8716;52.268;20.968;2024-02-15T08:11:48;6.90;99.90
17200;DHT22;8716;52.268;20.968;2024-02-15T08:14:17;7.00;99.90
17200;DHT22;8716;52.268;20.968;2024-02-15T08:16:49;7.00;99.90
17200;DHT22;8716;52.268;20.968;2024-02-15T08:19:17;6.90;99.90
17200;DHT22;8716;52.268;20.968;2024-02-15T08:21:46;6.90;99.90
17200;DHT22;8716;52.268;20.968;2024-02-15T08:24:18;6.90;99.90
17200;DHT22;8716;52.268;20.968;2024-02-15T08:26:46;6.90;99.90
17200;DHT22;8716;52.268;20.968;2024-02-15T08:29:17;6.90;99.90
17200;DHT22;8716;52.268;20.968;2024-02-15T08:31:45;6.90;99.90
17200;DHT22;8716;52.268;20.968;2024-02-15T08:34:17;6.90;99.90
17200;DHT22;8716;52.268;20.968;2024-02-15T08:36:47;7.00;99.90
17200;DHT22;8716;52.268;20.968;2024-02-15T08:39:16;7.00;99.90
17200;DHT22;8716;52.268;20.968;2024-02-15T08:41:44;7.00;99.90
17200;DHT22;8716;52.268;20.968;2024-02-15T08:44:13;7.00;99.90
17200;DHT22;8716;52.268;20.968;2024-02-15T08:46:43;7.00;99.90
17200;DHT22;8716;52.268;20.968;2024-02-15T08:49:11;7.00;99.90
17200;DHT22;8716;52.268;20.968;2024-02-15T08:51:42;7.10;99.90
17200;DHT22;8716;52.268;20.968;2024-02-15T08:54:10;7.10;99.90
17200;DHT22;8716;52.268;20.968;2024-02-15T08:56:39;7.10;99.90
17200;DHT22;8716;52.268;20.968;2024-02-15T08:59:07;7.10;99.90
17200;DHT22;8716;52.268;20.968;2024-02-15T09:01:36;7.20;99.90
17200;DHT22;8716;52.268;20.968;2024-02-15T09:04:04;7.10;99.90
17200;DHT22;8716;52.268;20.968;2024-02-15T09:06:32;7.10;99.90
17200;DHT22;8716;52.268;20.968;2024-02-15T09:09:02;7.10;99.90
17200;DHT22;8716;52.268;20.968;2024-02-15T09:11:31;7.20;99.90
17200;DHT22;8716;52.268;20.968;2024-02-15T09:14:00;7.20;99.90
17200;DHT22;8716;52.268;20.968;2024-02-15T09:16:28;7.30;99.90
17200;DHT22;8716;52.268;20.968;2024-02-15T09:18:58;7.30;99.90
17200;DHT22;8716;52.268;20.968;2024-02-15T09:21:30;7.30;99.90
17200;DHT22;8716;52.268;20.968;2024-02-15T09:24:01;7.30;99.90
17200;DHT22;8716;52.268;20.968;2024-02-15T09:26:30;7.40;99.90
17200;DHT22;8716;52.268;20.968;2024-02-15T09:28:58;7.40;99.90
17200;DHT22;8716;52.268;20.968;2024-02-15T09:31:29;7.30;99.90
17200;DHT22;8716;52.268;20.968;2024-02-15T09:33:58;7.40;99.90
17200;DHT22;8716;52.268;20.968;2024-02-15T09:36:26;7.40;99.90
17200;DHT22;8716;52.268;20.968;2024-02-15T09:38:56;7.50;99.90
17200;DHT22;8716;52.268;20.968;2024-02-15T09:41:27;7.40;99.90
17200;DHT22;8716;52.268;20.968;2024-02-15T09:43:57;7.40;99.90
17200;DHT22;8716;52.268;20.968;2024-02-15T09:46:25;7.50;99.90
17200;DHT22;8716;52.268;20.968;2024-02-15T09:48:56;7.50;99.90
17200;DHT22;8716;52.268;20.968;2024-02-15T09:51:28;7.50;99.90
17200;DHT22;8716;52.268;20.968;2024-02-15T09:53:58;7.50;99.90
17200;DHT22;8716;52.268;20.968;2024-02-15T09:56:31;7.50;99.90
17200;DHT22;8716;52.268;20.968;2024-02-15T09:59:00;7.50;99.90
17200;DHT22;8716;52.268;20.968;2024-02-15T10:01:31;7.50;99.90
17200;DHT22;8716;52.268;20.968;2024-02-15T10:04:01;7.50;99.90
17200;DHT22;8716;52.268;20.968;2024-02-15T10:06:33;7.60;99.90
17200;DHT22;8716;52.268;20.968;2024-02-15T10:09:24;7.60;99.90
17200;DHT22;8716;52.268;20.968;2024-02-15T10:11:57;7.60;99.90
17200;DHT22;8716;52.268;20.968;2024-02-15T10:14:26;7.70;99.90
17200;DHT22;8716;52.268;20.968;2024-02-15T10:16:55;7.70;99.90
17200;DHT22;8716;52.268;20.968;2024-02-15T10:19:23;7.70;99.90
17200;DHT22;8716;52.268;20.968;2024-02-15T10:21:52;7.80;99.90
17200;DHT22;8716;52.268;20.968;2024-02-15T10:24:23;7.80;99.90
17200;DHT22;8716;52.268;20.968;2024-02-15T10:27:02;7.80;99.90
17200;DHT22;8716;52.268;20.968;2024-02-15T10:29:31;7.80;99.90
17200;DHT22;8716;52.268;20.968;2024-02-15T10:32:01;7.90;99.90
17200;DHT22;8716;52.268;20.968;2024-02-15T10:34:30;7.90;99.90
17200;DHT22;8716;52.268;20.968;2024-02-15T10:37:12;8.00;99.90
17200;DHT22;8716;52.268;20.968;2024-02-15T10:39:40;8.10;99.90
17200;DHT22;8716;52.268;20.968;2024-02-15T10:42:10;8.10;99.90
17200;DHT22;8716;52.268;20.968;2024-02-15T10:44:39;8.20;99.90
17200;DHT22;8716;52.268;20.968;2024-02-15T10:47:08;8.30;99.90
17200;DHT22;8716;52.268;20.968;2024-02-15T10:49:37;8.30;99.90
17200;DHT22;8716;52.268;20.968;2024-02-15T10:52:09;8.40;99.90
17200;DHT22;8716;52.268;20.968;2024-02-15T10:54:46;8.40;99.90
17200;DHT22;8716;52.268;20.968;2024-02-15T10:57:20;8.40;99.90
17200;DHT22;8716;52.268;20.968;2024-02-15T10:59:54;8.50;99.90
17200;DHT22;8716;52.268;20.968;2024-02-15T11:02:29;8.50;99.90
17200;DHT22;8716;52.268;20.968;2024-02-15T11:05:03;8.50;99.90
17200;DHT22;8716;52.268;20.968;2024-02-15T11:07:36;8.60;99.90
17200;DHT22;8716;52.268;20.968;2024-02-15T11:10:07;8.60;99.90
17200;DHT22;8716;52.268;20.968;2024-02-15T11:12:42;8.60;99.90
17200;DHT22;8716;52.268;20.968;2024-02-15T11:15:40;8.60;99.90
17200;DHT22;8716;52.268;20.968;2024-02-15T11:18:09;8.60;99.90
17200;DHT22;8716;52.268;20.968;2024-02-15T11:20:47;8.60;99.90
17200;DHT22;8716;52.268;20.968;2024-02-15T11:23:27;8.60;99.90
17200;DHT22;8716;52.268;20.968;2024-02-15T11:25:58;8.70;99.90
17200;DHT22;8716;52.268;20.968;2024-02-15T11:28:39;8.70;99.90
17200;DHT22;8716;52.268;20.968;2024-02-15T11:31:11;8.70;99.90
17200;DHT22;8716;52.268;20.968;2024-02-15T11:37:05;8.80;99.90
17200;DHT22;8716;52.268;20.968;2024-02-15T11:39:40;8.80;99.90
17200;DHT22;8716;52.268;20.968;2024-02-15T11:42:28;8.90;99.90
17200;DHT22;8716;52.268;20.968;2024-02-15T11:45:06;8.90;99.90
17200;DHT22;8716;52.268;20.968;2024-02-15T11:47:37;9.00;99.90
17200;DHT22;8716;52.268;20.968;2024-02-15T11:50:09;9.00;99.90
17200;DHT22;8716;52.268;20.968;2024-02-15T11:52:41;9.10;99.90
17200;DHT22;8716;52.268;20.968;2024-02-15T11:55:10;9.20;99.90
17200;DHT22;8716;52.268;20.968;2024-02-15T11:57:40;9.20;99.90
17200;DHT22;8716;52.268;20.968;2024-02-15T12:00:23;9.20;99.90
17200;DHT22;8716;52.268;20.968;2024-02-15T12:03:09;9.30;99.90
17200;DHT22;8716;52.268;20.968;2024-02-15T12:05:55;9.30;99.90
17200;DHT22;8716;52.268;20.968;2024-02-15T12:08:44;9.30;99.90
17200;DHT22;8716;52.268;20.968;2024-02-15T12:11:30;9.40;99.90
17200;DHT22;8716;52.268;20.968;2024-02-15T12:14:16;9.50;99.90
17200;DHT22;8716;52.268;20.968;2024-02-15T12:17:04;9.60;99.90
17200;DHT22;8716;52.268;20.968;2024-02-15T12:19:51;9.70;99.90
17200;DHT22;8716;52.268;20.968;2024-02-15T12:22:24;9.70;99.90
17200;DHT22;8716;52.268;20.968;2024-02-15T12:24:54;9.70;99.90
17200;DHT22;8716;52.268;20.968;2024-02-15T12:27:23;9.70;99.90
17200;DHT22;8716;52.268;20.968;2024-02-15T12:29:55;9.80;99.90
17200;DHT22;8716;52.268;20.968;2024-02-15T12:32:26;9.80;99.90
17200;DHT22;8716;52.268;20.968;2024-02-15T12:35:11;9.80;99.90
17200;DHT22;8716;52.268;20.968;2024-02-15T12:37:42;9.80;99.90
17200;DHT22;8716;52.268;20.968;2024-02-15T12:40:12;9.90;99.90
17200;DHT22;8716;52.268;20.968;2024-02-15T12:42:43;9.90;99.90
17200;DHT22;8716;52.268;20.968;2024-02-15T12:45:16;10.00;99.90
17200;DHT22;8716;52.268;20.968;2024-02-15T12:47:51;10.00;99.90
17200;DHT22;8716;52.268;20.968;2024-02-15T12:50:22;10.00;99.90
17200;DHT22;8716;52.268;20.968;2024-02-15T12:52:51;10.00;99.90
17200;DHT22;8716;52.268;20.968;2024-02-15T12:55:22;10.00;99.90
17200;DHT22;8716;52.268;20.968;2024-02-15T12:57:52;10.00;99.90
17200;DHT22;8716;52.268;20.968;2024-02-15T13:00:26;10.00;99.90
17200;DHT22;8716;52.268;20.968;2024-02-15T13:02:58;10.00;99.90
17200;DHT22;8716;52.268;20.968;2024-02-15T13:05:31;10.00;99.90
17200;DHT22;8716;52.268;20.968;2024-02-15T13:07:59;10.10;99.90
17200;DHT22;8716;52.268;20.968;2024-02-15T13:10:29;10.20;99.90
17200;DHT22;8716;52.268;20.968;2024-02-15T13:12:58;10.30;99.90
17200;DHT22;8716;52.268;20.968;2024-02-15T13:15:27;10.40;99.90
17200;DHT22;8716;52.268;20.968;2024-02-15T13:18:03;10.40;99.90
17200;DHT22;8716;52.268;20.968;2024-02-15T13:20:33;10.50;99.90
17200;DHT22;8716;52.268;20.968;2024-02-15T13:23:06;10.60;99.90
17200;DHT22;8716;52.268;20.968;2024-02-15T13:25:42;10.70;99.90
17200;DHT22;8716;52.268;20.968;2024-02-15T13:28:13;10.70;99.90
17200;DHT22;8716;52.268;20.968;2024-02-15T13:30:41;10.80;99.90
17200;DHT22;8716;52.268;20.968;2024-02-15T13:33:13;10.80;99.90
17200;DHT22;8716;52.268;20.968;2024-02-15T13:35:45;10.80;99.90
17200;DHT22;8716;52.268;20.968;2024-02-15T13:38:14;10.80;99.90
17200;DHT22;8716;52.268;20.968;2024-02-15T13:40:51;10.90;99.90
17200;DHT22;8716;52.268;20.968;2024-02-15T13:43:23;10.90;99.90
17200;DHT22;8716;52.268;20.968;2024-02-15T13:45:52;10.90;99.90
17200;DHT22;8716;52.268;20.968;2024-02-15T13:48:22;11.00;99.90
17200;DHT22;8716;52.268;20.968;2024-02-15T13:50:54;11.00;99.90
17200;DHT22;8716;52.268;20.968;2024-02-15T13:53:24;11.10;99.90
17200;DHT22;8716;52.268;20.968;2024-02-15T13:55:55;11.10;99.90
17200;DHT22;8716;52.268;20.968;2024-02-15T13:58:24;11.10;99.90
17200;DHT22;8716;52.268;20.968;2024-02-15T14:00:52;11.00;99.90
17200;DHT22;8716;52.268;20.968;2024-02-15T14:03:22;11.00;99.90
17200;DHT22;8716;52.268;20.968;2024-02-15T14:05:54;11.00;99.90
17200;DHT22;8716;52.268;20.968;2024-02-15T14:08:24;11.00;99.90
17200;DHT22;8716;52.268;20.968;2024-02-15T14:10:53;11.00;99.90
17200;DHT22;8716;52.268;20.968;2024-02-15T14:13:23;11.00;99.90
17200;DHT22;8716;52.268;20.968;2024-02-15T14:15:52;11.00;99.90
17200;DHT22;8716;52.268;20.968;2024-02-15T14:18:22;11.10;99.90
17200;DHT22;8716;52.268;20.968;2024-02-15T14:20:51;11.10;99.90
17200;DHT22;8716;52.268;20.968;2024-02-15T14:23:19;11.10;99.90
17200;DHT22;8716;52.268;20.968;2024-02-15T14:25:48;11.00;99.90
17200;DHT22;8716;52.268;20.968;2024-02-15T14:28:17;11.00;99.90
17200;DHT22;8716;52.268;20.968;2024-02-15T14:30:45;11.00;99.90
17200;DHT22;8716;52.268;20.968;2024-02-15T14:33:32;11.00;99.90
17200;DHT22;8716;52.268;20.968;2024-02-15T14:36:02;11.00;99.90
17200;DHT22;8716;52.268;20.968;2024-02-15T14:38:31;11.00;99.90
17200;DHT22;8716;52.268;20.968;2024-02-15T14:41:04;11.00;99.90
17200;DHT22;8716;52.268;20.968;2024-02-15T14:43:35;10.90;99.90
17200;DHT22;8716;52.268;20.968;2024-02-15T14:46:06;10.90;99.90
17200;DHT22;8716;52.268;20.968;2024-02-15T14:48:38;10.80;99.90
17200;DHT22;8716;52.268;20.968;2024-02-15T14:51:08;10.80;99.90
17200;DHT22;8716;52.268;20.968;2024-02-15T14:53:37;10.70;99.90
17200;DHT22;8716;52.268;20.968;2024-02-15T14:56:06;10.70;99.90
17200;DHT22;8716;52.268;20.968;2024-02-15T14:58:34;10.70;99.90
17200;DHT22;8716;52.268;20.968;2024-02-15T15:01:03;10.70;99.90
17200;DHT22;8716;52.268;20.968;2024-02-15T15:03:34;10.60;99.90
17200;DHT22;8716;52.268;20.968;2024-02-15T15:06:07;10.60;99.90
17200;DHT22;8716;52.268;20.968;2024-02-15T15:08:53;10.60;99.90
17200;DHT22;8716;52.268;20.968;2024-02-15T15:11:42;10.60;99.90
17200;DHT22;8716;52.268;20.968;2024-02-15T15:14:27;10.60;99.90
17200;DHT22;8716;52.268;20.968;2024-02-15T15:16:56;10.50;99.90
17200;DHT22;8716;52.268;20.968;2024-02-15T15:19:24;10.50;99.90
17200;DHT22;8716;52.268;20.968;2024-02-15T15:21:55;10.50;99.90
17200;DHT22;8716;52.268;20.968;2024-02-15T15:24:24;10.50;99.90
17200;DHT22;8716;52.268;20.968;2024-02-15T15:26:53;10.40;99.90
17200;DHT22;8716;52.268;20.968;2024-02-15T15:29:22;10.40;99.90
17200;DHT22;8716;52.268;20.968;2024-02-15T15:31:50;10.40;99.90
17200;DHT22;8716;52.268;20.968;2024-02-15T15:34:19;10.40;99.90
17200;DHT22;8716;52.268;20.968;2024-02-15T15:36:48;10.30;99.90
17200;DHT22;8716;52.268;20.968;2024-02-15T15:39:18;10.20;99.90
17200;DHT22;8716;52.268;20.968;2024-02-15T15:41:47;10.10;99.90
17200;DHT22;8716;52.268;20.968;2024-02-15T15:44:15;10.10;99.90
17200;DHT22;8716;52.268;20.968;2024-02-15T15:46:44;10.10;99.90
17200;DHT22;8716;52.268;20.968;2024-02-15T15:49:12;10.10;99.90
17200;DHT22;8716;52.268;20.968;2024-02-15T15:51:42;10.10;99.90
17200;DHT22;8716;52.268;20.968;2024-02-15T15:54:10;10.00;99.90
17200;DHT22;8716;52.268;20.968;2024-02-15T15:56:40;10.00;99.90
17200;DHT22;8716;52.268;20.968;2024-02-15T15:59:08;10.00;99.90
17200;DHT22;8716;52.268;20.968;2024-02-15T16:01:37;9.90;99.90
17200;DHT22;8716;52.268;20.968;2024-02-15T16:04:08;9.90;99.90
17200;DHT22;8716;52.268;20.968;2024-02-15T16:06:36;9.90;99.90
17200;DHT22;8716;52.268;20.968;2024-02-15T16:09:08;9.90;99.90